createdAt,value
2018-11-10T00:00:26.312Z,0.00
2018-11-10T00:01:27.056Z,0.00
2018-11-10T00:02:26.085Z,0.00
2018-11-10T00:03:26.074Z,0.00
2018-11-10T00:04:27.150Z,0.00
2018-11-10T00:05:26.056Z,0.00
2018-11-10T00:06:26.090Z,0.00
2018-11-10T00:07:26.553Z,0.00
2018-11-10T00:08:26.099Z,0.00
2018-11-10T00:09:26.591Z,0.00
2018-11-10T00:10:26.007Z,0.00
2018-11-10T00:11:26.838Z,0.00
2018-11-10T00:12:26.030Z,0.00
2018-11-10T00:13:25.970Z,0.00
2018-11-10T00:14:25.960Z,0.00
2018-11-10T00:15:26.576Z,0.00
2018-11-10T00:16:25.992Z,0.00
2018-11-10T00:17:25.924Z,0.00
2018-11-10T00:18:27.360Z,0.00
2018-11-10T00:19:25.904Z,0.00
2018-11-10T00:20:26.512Z,0.00
2018-11-10T00:21:25.884Z,0.00
2018-11-10T00:22:25.877Z,0.00
2018-11-10T00:23:25.864Z,0.00
2018-11-10T00:24:26.189Z,0.00
2018-11-10T00:25:26.120Z,0.00
2018-11-10T00:26:25.845Z,0.00
2018-11-10T00:27:25.847Z,0.00
2018-11-10T00:28:25.825Z,0.00
2018-11-10T00:29:25.801Z,0.00
2018-11-10T00:30:25.996Z,0.00
2018-11-10T00:31:25.775Z,0.00
2018-11-10T00:32:26.053Z,0.00
2018-11-10T00:33:25.762Z,0.00
2018-11-10T00:34:25.789Z,0.00
2018-11-10T00:35:25.736Z,0.00
2018-11-10T00:36:25.880Z,0.00
2018-11-10T00:37:25.713Z,0.00
2018-11-10T00:38:25.702Z,0.00
2018-11-10T00:39:25.972Z,0.00
2018-11-10T00:40:25.688Z,0.00
2018-11-10T00:41:25.706Z,0.00
2018-11-10T00:42:25.802Z,0.00
2018-11-10T00:43:25.648Z,0.00
2018-11-10T00:44:25.638Z,0.00
2018-11-10T00:45:25.630Z,0.00
2018-11-10T00:46:26.283Z,0.00
2018-11-10T00:47:25.678Z,0.00
2018-11-10T00:48:25.725Z,0.00
2018-11-10T00:49:25.589Z,0.00
2018-11-10T00:50:25.575Z,0.00
2018-11-10T00:51:25.580Z,0.00
2018-11-10T00:52:25.563Z,0.00
2018-11-10T00:53:25.852Z,0.00
2018-11-10T00:54:25.685Z,0.00
2018-11-10T00:55:25.528Z,0.00
2018-11-10T00:56:25.508Z,0.00
2018-11-10T00:57:25.508Z,0.00
2018-11-10T00:58:25.487Z,0.00
2018-11-10T00:59:25.491Z,0.00
2018-11-10T01:00:25.913Z,0.00
2018-11-10T01:01:25.462Z,0.00
2018-11-10T01:02:25.448Z,0.00
2018-11-10T01:03:25.441Z,0.00
2018-11-10T01:04:25.457Z,0.00
2018-11-10T01:05:25.419Z,0.00
2018-11-10T01:06:25.538Z,0.00
2018-11-10T01:07:25.708Z,0.00
2018-11-10T01:08:25.383Z,0.00
2018-11-10T01:09:25.435Z,0.00
2018-11-10T01:10:25.372Z,0.00
2018-11-10T01:11:25.353Z,0.00
2018-11-10T01:12:25.483Z,0.00
2018-11-10T01:13:25.339Z,0.00
2018-11-10T01:14:25.778Z,0.00
2018-11-10T01:15:25.336Z,0.00
2018-11-10T01:16:25.298Z,0.00
2018-11-10T01:17:25.287Z,0.00
2018-11-10T01:18:25.438Z,0.00
2018-11-10T01:19:25.282Z,0.00
2018-11-10T01:20:25.261Z,0.00
2018-11-10T01:21:25.518Z,0.00
2018-11-10T01:22:25.244Z,0.00
2018-11-10T01:23:25.221Z,0.00
2018-11-10T01:24:26.219Z,0.00
2018-11-10T01:25:25.206Z,0.00
2018-11-10T01:26:25.190Z,0.00
2018-11-10T01:27:25.184Z,0.00
2018-11-10T01:28:25.457Z,0.00
2018-11-10T01:29:25.159Z,0.00
2018-11-10T01:30:25.433Z,0.00
2018-11-10T01:31:25.138Z,0.00
2018-11-10T01:32:25.142Z,0.00
2018-11-10T01:33:25.115Z,0.00
2018-11-10T01:34:25.117Z,0.00
2018-11-10T01:35:25.455Z,0.00
2018-11-10T01:36:25.291Z,0.00
2018-11-10T01:37:25.075Z,0.00
2018-11-10T01:38:25.067Z,0.00
2018-11-10T01:39:25.056Z,0.00
2018-11-10T01:40:25.040Z,0.00
2018-11-10T01:41:25.029Z,0.00
2018-11-10T01:42:26.575Z,0.00
2018-11-10T01:43:25.538Z,0.00
2018-11-10T01:44:25.075Z,0.00
2018-11-10T01:45:25.004Z,0.00
2018-11-10T01:46:24.981Z,0.00
2018-11-10T01:47:24.967Z,0.00
2018-11-10T01:48:25.257Z,0.00
2018-11-10T01:49:25.235Z,0.00
2018-11-10T01:50:24.941Z,0.00
2018-11-10T01:51:24.922Z,0.00
2018-11-10T01:52:24.913Z,0.00
2018-11-10T01:53:24.902Z,0.00
2018-11-10T01:54:26.540Z,0.00
2018-11-10T01:55:24.885Z,0.00
2018-11-10T01:56:25.551Z,0.00
2018-11-10T01:57:24.863Z,0.00
2018-11-10T01:58:24.854Z,0.00
2018-11-10T01:59:24.842Z,0.00
2018-11-10T02:00:24.874Z,0.00
2018-11-10T02:01:25.115Z,0.00
2018-11-10T02:02:24.829Z,0.00
2018-11-10T02:03:24.812Z,0.00
2018-11-10T02:04:24.786Z,0.00
2018-11-10T02:05:24.779Z,0.00
2018-11-10T02:06:24.921Z,0.00
2018-11-10T02:07:25.029Z,0.00
2018-11-10T02:08:24.750Z,0.00
2018-11-10T02:09:24.742Z,0.00
2018-11-10T02:10:24.721Z,0.00
2018-11-10T02:11:24.710Z,0.00
2018-11-10T02:12:24.738Z,0.00
2018-11-10T02:13:24.694Z,0.00
2018-11-10T02:14:24.690Z,0.00
2018-11-10T02:15:24.667Z,0.00
2018-11-10T02:16:24.658Z,0.00
2018-11-10T02:17:24.648Z,0.00
2018-11-10T02:18:24.674Z,0.00
2018-11-10T02:19:25.068Z,0.00
2018-11-10T02:20:24.638Z,0.00
2018-11-10T02:21:24.605Z,0.00
2018-11-10T02:22:24.597Z,0.00
2018-11-10T02:23:24.591Z,0.00
2018-11-10T02:24:24.646Z,0.00
2018-11-10T02:25:24.628Z,0.00
2018-11-10T02:26:24.829Z,0.00
2018-11-10T02:27:24.546Z,0.00
2018-11-10T02:28:24.537Z,0.00
2018-11-10T02:29:24.523Z,0.00
2018-11-10T02:30:24.552Z,0.00
2018-11-10T02:31:24.510Z,0.00
2018-11-10T02:32:24.498Z,0.00
2018-11-10T02:33:24.780Z,0.00
2018-11-10T02:34:24.469Z,0.00
2018-11-10T02:35:24.463Z,0.00
2018-11-10T02:36:24.504Z,0.00
2018-11-10T02:37:24.448Z,0.00
2018-11-10T02:38:24.442Z,0.00
2018-11-10T02:39:24.462Z,0.00
2018-11-10T02:40:24.705Z,0.00
2018-11-10T02:41:24.396Z,0.00
2018-11-10T02:42:24.458Z,0.00
2018-11-10T02:43:24.397Z,0.00
2018-11-10T02:44:24.361Z,0.00
2018-11-10T02:45:24.348Z,0.00
2018-11-10T02:46:24.364Z,0.00
2018-11-10T02:47:24.605Z,0.00
2018-11-10T02:48:24.363Z,0.00
2018-11-10T02:49:24.305Z,0.00
2018-11-10T02:50:24.303Z,0.00
2018-11-10T02:51:24.304Z,0.00
2018-11-10T02:52:24.285Z,0.00
2018-11-10T02:53:24.272Z,0.00
2018-11-10T02:54:24.577Z,0.00
2018-11-10T02:55:24.244Z,0.00
2018-11-10T02:56:24.238Z,0.00
2018-11-10T02:57:24.236Z,0.00
2018-11-10T02:58:24.219Z,0.00
2018-11-10T02:59:24.201Z,0.00
2018-11-10T03:01:40.912Z,0.00
2018-11-10T03:02:40.335Z,0.00
2018-11-10T03:03:40.328Z,0.00
2018-11-10T03:04:40.419Z,0.00
2018-11-10T03:05:40.315Z,0.00
2018-11-10T03:06:40.293Z,0.00
2018-11-10T03:07:40.611Z,0.00
2018-11-10T03:08:40.275Z,0.00
2018-11-10T03:09:40.265Z,0.00
2018-11-10T03:10:40.318Z,0.00
2018-11-10T03:11:40.245Z,0.00
2018-11-10T03:12:40.228Z,0.00
2018-11-10T03:13:40.536Z,0.00
2018-11-10T03:14:40.215Z,0.00
2018-11-10T03:15:40.196Z,0.00
2018-11-10T03:16:40.188Z,0.00
2018-11-10T03:17:40.178Z,0.00
2018-11-10T03:18:40.165Z,0.00
2018-11-10T03:19:40.376Z,0.00
2018-11-10T03:20:40.434Z,0.00
2018-11-10T03:21:40.134Z,0.00
2018-11-10T03:22:40.120Z,0.00
2018-11-10T03:23:40.111Z,0.00
2018-11-10T03:24:40.100Z,0.00
2018-11-10T03:25:40.129Z,0.00
2018-11-10T03:26:40.087Z,0.00
2018-11-10T03:27:40.566Z,0.00
2018-11-10T03:28:40.058Z,0.00
2018-11-10T03:29:40.047Z,0.00
2018-11-10T03:30:40.043Z,0.00
2018-11-10T03:31:40.065Z,0.00
2018-11-10T03:32:40.117Z,0.00
2018-11-10T03:33:40.005Z,0.00
2018-11-10T03:34:39.992Z,0.00
2018-11-10T03:35:39.986Z,0.00
2018-11-10T03:36:40.071Z,0.00
2018-11-10T03:37:40.026Z,0.00
2018-11-10T03:38:39.952Z,0.00
2018-11-10T03:39:40.608Z,0.00
2018-11-10T03:40:40.226Z,0.00
2018-11-10T03:41:39.924Z,0.00
2018-11-10T03:42:39.909Z,0.00
2018-11-10T03:43:39.941Z,0.00
2018-11-10T03:44:39.894Z,0.00
2018-11-10T03:45:40.561Z,0.00
2018-11-10T03:46:39.959Z,0.00
2018-11-10T03:47:40.151Z,0.00
2018-11-10T03:48:40.589Z,0.00
2018-11-10T03:49:39.880Z,0.00
2018-11-10T03:50:39.827Z,0.00
2018-11-10T03:51:39.816Z,0.00
2018-11-10T03:52:39.811Z,0.00
2018-11-10T03:53:39.794Z,0.00
2018-11-10T03:54:40.172Z,0.00
2018-11-10T03:55:39.833Z,0.00
2018-11-10T03:56:39.761Z,0.00
2018-11-10T03:57:39.750Z,0.00
2018-11-10T03:58:39.748Z,0.00
2018-11-10T03:59:39.734Z,0.00
2018-11-10T04:00:39.717Z,0.00
2018-11-10T04:01:39.745Z,0.00
2018-11-10T04:02:39.713Z,0.00
2018-11-10T04:03:40.592Z,0.00
2018-11-10T04:04:39.681Z,0.00
2018-11-10T04:05:39.766Z,0.00
2018-11-10T04:06:39.653Z,0.00
2018-11-10T04:07:40.012Z,0.00
2018-11-10T04:08:39.632Z,0.00
2018-11-10T04:09:39.622Z,0.00
2018-11-10T04:10:39.612Z,0.00
2018-11-10T04:11:39.602Z,0.00
2018-11-10T04:12:39.588Z,0.00
2018-11-10T04:13:39.643Z,0.00
2018-11-10T04:14:39.999Z,0.00
2018-11-10T04:15:39.557Z,0.00
2018-11-10T04:16:39.548Z,0.00
2018-11-10T04:17:39.536Z,0.00
2018-11-10T04:18:39.526Z,0.00
2018-11-10T04:19:39.555Z,0.00
2018-11-10T04:20:39.506Z,0.00
2018-11-10T04:21:39.824Z,0.00
2018-11-10T04:22:39.484Z,0.00
2018-11-10T04:23:39.473Z,0.00
2018-11-10T04:24:39.463Z,0.00
2018-11-10T04:25:39.790Z,0.00
2018-11-10T04:26:39.442Z,0.00
2018-11-10T04:27:39.432Z,0.00
2018-11-10T04:28:40.549Z,0.00
2018-11-10T04:29:39.412Z,0.00
2018-11-10T04:30:39.499Z,0.00
2018-11-10T04:31:39.452Z,0.00
2018-11-10T04:32:39.378Z,0.00
2018-11-10T04:33:39.369Z,0.00
2018-11-10T04:34:39.359Z,0.00
2018-11-10T04:35:44.381Z,0.00
2018-11-10T04:36:39.337Z,0.00
2018-11-10T04:37:39.360Z,0.00
2018-11-10T04:38:39.321Z,0.00
2018-11-10T04:39:39.302Z,0.00
2018-11-10T04:40:39.292Z,0.00
2018-11-10T04:41:39.282Z,0.00
2018-11-10T04:42:39.693Z,0.00
2018-11-10T04:43:39.301Z,0.00
2018-11-10T04:44:39.251Z,0.00
2018-11-10T04:45:39.240Z,0.00
2018-11-10T04:46:39.229Z,0.00
2018-11-10T04:47:39.220Z,0.00
2018-11-10T04:48:39.212Z,0.00
2018-11-10T04:49:40.018Z,0.00
2018-11-10T04:50:39.191Z,0.00
2018-11-10T04:51:39.178Z,0.00
2018-11-10T04:52:39.167Z,0.00
2018-11-10T04:53:39.159Z,0.00
2018-11-10T04:54:39.144Z,0.00
2018-11-10T04:55:39.174Z,0.00
2018-11-10T04:56:39.538Z,0.00
2018-11-10T04:57:40.087Z,0.00
2018-11-10T04:58:39.101Z,0.00
2018-11-10T04:59:39.091Z,0.00
2018-11-10T05:00:39.088Z,0.00
2018-11-10T05:01:39.117Z,0.00
2018-11-10T05:02:39.058Z,0.00
2018-11-10T05:03:39.466Z,0.00
2018-11-10T05:04:39.037Z,0.00
2018-11-10T05:05:39.036Z,0.00
2018-11-10T05:06:39.018Z,0.00
2018-11-10T05:07:39.321Z,0.00
2018-11-10T05:08:38.992Z,0.00
2018-11-10T05:09:39.085Z,0.00
2018-11-10T05:10:39.284Z,0.00
2018-11-10T05:11:39.584Z,0.00
2018-11-10T05:12:38.952Z,0.00
2018-11-10T05:13:39.809Z,0.00
2018-11-10T05:14:38.928Z,0.00
2018-11-10T05:15:39.592Z,0.00
2018-11-10T05:16:38.915Z,0.00
2018-11-10T05:17:39.308Z,0.00
2018-11-10T05:18:38.888Z,0.00
2018-11-10T05:19:38.952Z,0.00
2018-11-10T05:20:38.873Z,0.00
2018-11-10T05:21:38.864Z,0.00
2018-11-10T05:22:38.844Z,0.00
2018-11-10T05:23:38.843Z,0.00
2018-11-10T05:24:40.151Z,0.00
2018-11-10T05:25:38.916Z,0.00
2018-11-10T05:26:38.802Z,0.00
2018-11-10T05:27:38.792Z,0.00
2018-11-10T05:28:38.787Z,0.00
2018-11-10T05:29:38.769Z,0.00
2018-11-10T05:30:38.763Z,0.00
2018-11-10T05:31:38.826Z,0.00
2018-11-10T05:32:38.743Z,0.00
2018-11-10T05:33:38.730Z,0.00
2018-11-10T05:34:38.716Z,0.00
2018-11-10T05:35:38.710Z,0.00
2018-11-10T05:36:38.697Z,0.00
2018-11-10T05:37:39.055Z,0.00
2018-11-10T05:38:38.679Z,0.00
2018-11-10T05:39:38.667Z,0.00
2018-11-10T05:40:38.655Z,0.00
2018-11-10T05:41:38.647Z,0.00
2018-11-10T05:42:38.640Z,0.00
2018-11-10T05:43:42.477Z,0.00
2018-11-10T05:44:38.609Z,0.00
2018-11-10T05:45:38.598Z,0.00
2018-11-10T05:46:38.597Z,0.00
2018-11-10T05:47:38.581Z,0.00
2018-11-10T05:48:38.568Z,0.00
2018-11-10T05:49:38.806Z,0.00
2018-11-10T05:50:38.956Z,0.00
2018-11-10T05:51:38.536Z,0.00
2018-11-10T05:52:38.528Z,0.00
2018-11-10T05:53:38.525Z,0.00
2018-11-10T05:54:38.505Z,0.00
2018-11-10T05:55:38.801Z,0.00
2018-11-10T05:56:39.164Z,0.00
2018-11-10T05:57:38.480Z,0.00
2018-11-10T05:58:38.469Z,0.00
2018-11-10T05:59:38.453Z,0.00
2018-11-10T06:00:38.445Z,0.00
2018-11-10T06:01:38.622Z,0.00
2018-11-10T06:02:38.419Z,0.00
2018-11-10T06:03:38.767Z,0.00
2018-11-10T06:04:38.425Z,0.00
2018-11-10T06:05:38.400Z,0.00
2018-11-10T06:06:38.476Z,0.00
2018-11-10T06:07:38.571Z,0.00
2018-11-10T06:08:38.356Z,0.00
2018-11-10T06:09:38.423Z,0.00
2018-11-10T06:10:38.334Z,0.00
2018-11-10T06:11:38.327Z,0.00
2018-11-10T06:12:38.319Z,0.00
2018-11-10T06:13:38.436Z,0.00
2018-11-10T06:14:38.294Z,0.00
2018-11-10T06:15:38.748Z,0.00
2018-11-10T06:16:38.718Z,0.00
2018-11-10T06:17:38.265Z,0.00
2018-11-10T06:18:38.255Z,0.00
2018-11-10T06:19:38.338Z,0.00
2018-11-10T06:20:38.227Z,0.00
2018-11-10T06:21:38.216Z,0.00
2018-11-10T06:22:38.566Z,0.00
2018-11-10T06:23:38.202Z,0.00
2018-11-10T06:24:38.201Z,0.00
2018-11-10T06:25:38.241Z,0.00
2018-11-10T06:26:38.169Z,0.00
2018-11-10T06:27:38.153Z,0.00
2018-11-10T06:28:38.147Z,0.00
2018-11-10T06:29:38.600Z,0.00
2018-11-10T06:30:38.131Z,0.00
2018-11-10T06:31:38.179Z,0.00
2018-11-10T06:32:39.164Z,0.00
2018-11-10T06:33:45.172Z,0.00
2018-11-10T06:34:38.107Z,0.00
2018-11-10T06:35:38.069Z,0.00
2018-11-10T06:36:38.414Z,0.00
2018-11-10T06:37:38.294Z,0.00
2018-11-10T06:38:38.569Z,0.00
2018-11-10T06:39:38.578Z,0.00
2018-11-10T06:40:38.584Z,0.00
2018-11-10T06:41:38.009Z,0.00
2018-11-10T06:42:38.016Z,0.00
2018-11-10T06:43:38.482Z,0.00
2018-11-10T06:44:38.282Z,0.00
2018-11-10T06:45:37.988Z,0.00
2018-11-10T06:46:37.962Z,0.00
2018-11-10T06:47:37.953Z,0.00
2018-11-10T06:48:37.951Z,0.00
2018-11-10T06:49:37.998Z,0.00
2018-11-10T06:50:38.864Z,0.00
2018-11-10T06:51:38.579Z,5.62
2018-11-10T06:52:37.888Z,5.62
2018-11-10T06:53:38.533Z,5.62
2018-11-10T06:54:37.871Z,5.62
2018-11-10T06:55:38.204Z,5.62
2018-11-10T06:56:37.845Z,5.62
2018-11-10T06:57:38.288Z,5.62
2018-11-10T06:58:37.822Z,5.62
2018-11-10T06:59:37.808Z,5.62
2018-11-10T07:00:37.800Z,5.62
2018-11-10T07:01:37.857Z,5.62
2018-11-10T07:02:37.778Z,5.62
2018-11-10T07:03:37.776Z,5.62
2018-11-10T07:04:38.094Z,5.62
2018-11-10T07:05:37.751Z,5.62
2018-11-10T07:06:37.740Z,5.62
2018-11-10T07:07:37.806Z,5.62
2018-11-10T07:08:37.716Z,5.62
2018-11-10T07:09:37.825Z,5.62
2018-11-10T07:10:37.801Z,5.62
2018-11-10T07:11:38.111Z,5.62
2018-11-10T07:12:37.672Z,5.62
2018-11-10T07:13:38.068Z,5.62
2018-11-10T07:14:37.753Z,5.62
2018-11-10T07:15:37.682Z,5.62
2018-11-10T07:16:37.648Z,5.62
2018-11-10T07:17:37.707Z,5.62
2018-11-10T07:18:37.933Z,5.62
2018-11-10T07:19:37.668Z,5.62
2018-11-10T07:20:37.894Z,5.62
2018-11-10T07:21:37.749Z,5.62
2018-11-10T07:22:37.831Z,5.62
2018-11-10T07:23:37.772Z,5.62
2018-11-10T07:24:37.597Z,5.62
2018-11-10T07:25:38.001Z,5.62
2018-11-10T07:26:37.524Z,5.62
2018-11-10T07:27:37.510Z,5.62
2018-11-10T07:28:37.504Z,5.62
2018-11-10T07:29:37.495Z,5.62
2018-11-10T07:30:37.485Z,5.62
2018-11-10T07:31:37.986Z,5.62
2018-11-10T07:32:37.464Z,5.62
2018-11-10T07:33:37.456Z,5.62
2018-11-10T07:34:37.528Z,11.25
2018-11-10T07:35:37.435Z,11.25
2018-11-10T07:36:37.416Z,11.25
2018-11-10T07:37:37.610Z,11.25
2018-11-10T07:38:37.415Z,11.25
2018-11-10T07:39:37.389Z,11.25
2018-11-10T07:40:37.489Z,5.62
2018-11-10T07:41:37.363Z,5.62
2018-11-10T07:42:37.352Z,5.62
2018-11-10T07:43:37.430Z,5.62
2018-11-10T07:44:37.759Z,5.62
2018-11-10T07:45:37.325Z,5.62
2018-11-10T07:46:37.313Z,5.62
2018-11-10T07:47:37.297Z,5.62
2018-11-10T07:48:37.296Z,5.62
2018-11-10T07:49:38.541Z,5.62
2018-11-10T07:50:37.307Z,5.62
2018-11-10T07:51:37.368Z,5.62
2018-11-10T07:52:37.246Z,5.62
2018-11-10T07:53:37.242Z,5.62
2018-11-10T07:54:38.413Z,5.62
2018-11-10T07:55:37.748Z,5.62
2018-11-10T07:56:37.523Z,5.62
2018-11-10T07:57:37.199Z,5.62
2018-11-10T07:58:37.367Z,5.62
2018-11-10T07:59:37.171Z,5.62
2018-11-10T08:00:37.161Z,5.62
2018-11-10T08:01:37.227Z,11.25
2018-11-10T08:02:37.147Z,11.25
2018-11-10T08:03:37.124Z,11.25
2018-11-10T08:04:37.114Z,11.25
2018-11-10T08:05:37.102Z,11.25
2018-11-10T08:06:37.095Z,11.25
2018-11-10T08:07:38.832Z,11.25
2018-11-10T08:08:38.063Z,11.25
2018-11-10T08:09:37.434Z,11.25
2018-11-10T08:10:37.559Z,11.25
2018-11-10T08:11:37.042Z,11.25
2018-11-10T08:12:37.027Z,11.25
2018-11-10T08:13:37.154Z,11.25
2018-11-10T08:14:37.571Z,11.25
2018-11-10T08:15:37.563Z,11.25
2018-11-10T08:16:37.747Z,11.25
2018-11-10T08:17:37.286Z,11.25
2018-11-10T08:18:37.212Z,11.25
2018-11-10T08:19:37.474Z,11.25
2018-11-10T08:20:37.196Z,11.25
2018-11-10T08:21:36.930Z,11.25
2018-11-10T08:22:37.671Z,11.25
2018-11-10T08:23:37.272Z,11.25
2018-11-10T08:24:36.900Z,11.25
2018-11-10T08:25:37.169Z,16.88
2018-11-10T08:26:36.877Z,16.88
2018-11-10T08:27:37.520Z,22.50
2018-11-10T08:28:37.523Z,28.12
2018-11-10T08:29:36.848Z,28.12
2018-11-10T08:30:37.295Z,28.12
2018-11-10T08:31:37.759Z,33.75
2018-11-10T08:32:36.812Z,33.75
2018-11-10T08:33:36.802Z,33.75
2018-11-10T08:34:36.796Z,33.75
2018-11-10T08:35:36.779Z,33.75
2018-11-10T08:36:37.776Z,39.38
2018-11-10T08:37:37.355Z,39.38
2018-11-10T08:38:36.778Z,45.00
2018-11-10T08:39:36.742Z,45.00
2018-11-10T08:40:36.749Z,45.00
2018-11-10T08:41:36.820Z,45.00
2018-11-10T08:42:37.052Z,50.62
2018-11-10T08:43:36.971Z,56.25
2018-11-10T08:44:37.041Z,61.88
2018-11-10T08:45:36.755Z,67.50
2018-11-10T08:46:36.662Z,67.50
2018-11-10T08:47:36.652Z,67.50
2018-11-10T08:48:36.653Z,67.50
2018-11-10T08:49:38.555Z,67.50
2018-11-10T08:50:37.857Z,61.88
2018-11-10T08:51:37.161Z,61.88
2018-11-10T08:52:44.906Z,61.88
2018-11-10T08:53:37.228Z,61.88
2018-11-10T08:54:38.043Z,56.25
2018-11-10T08:55:38.745Z,56.25
2018-11-10T08:56:36.708Z,56.25
2018-11-10T08:57:36.779Z,50.62
2018-11-10T08:58:36.974Z,50.62
2018-11-10T08:59:36.830Z,50.62
2018-11-10T09:00:36.568Z,50.62
2018-11-10T09:01:38.155Z,56.25
2018-11-10T09:02:36.491Z,50.62
2018-11-10T09:03:36.811Z,56.25
2018-11-10T09:04:37.076Z,56.25
2018-11-10T09:05:36.780Z,56.25
2018-11-10T09:06:36.464Z,56.25
2018-11-10T09:07:38.485Z,56.25
2018-11-10T09:08:36.633Z,61.88
2018-11-10T09:09:36.839Z,61.88
2018-11-10T09:10:36.705Z,61.88
2018-11-10T09:11:37.767Z,61.88
2018-11-10T09:12:37.524Z,61.88
2018-11-10T09:13:36.718Z,67.50
2018-11-10T09:14:37.432Z,67.50
2018-11-10T09:15:36.693Z,67.50
2018-11-10T09:16:37.028Z,67.50
2018-11-10T09:17:36.797Z,67.50
2018-11-10T09:18:37.021Z,61.88
2018-11-10T09:19:39.404Z,61.88
2018-11-10T09:20:37.647Z,61.88
2018-11-10T09:21:36.326Z,56.25
2018-11-10T09:22:36.778Z,56.25
2018-11-10T09:23:36.884Z,56.25
2018-11-10T09:24:36.471Z,50.62
2018-11-10T09:25:36.635Z,50.62
2018-11-10T09:26:36.578Z,50.62
2018-11-10T09:27:36.305Z,56.25
2018-11-10T09:28:36.329Z,56.25
2018-11-10T09:29:36.637Z,56.25
2018-11-10T09:30:37.360Z,61.88
2018-11-10T09:31:36.223Z,61.88
2018-11-10T09:32:37.150Z,61.88
2018-11-10T09:33:36.372Z,67.50
2018-11-10T09:34:36.257Z,67.50
2018-11-10T09:35:37.154Z,67.50
2018-11-10T09:36:36.258Z,67.50
2018-11-10T09:37:36.997Z,67.50
2018-11-10T09:38:36.288Z,73.12
2018-11-10T09:39:36.254Z,73.12
2018-11-10T09:40:37.116Z,73.12
2018-11-10T09:41:36.572Z,78.75
2018-11-10T09:42:40.020Z,84.38
2018-11-10T09:43:42.255Z,84.38
2018-11-10T09:44:36.865Z,90.00
2018-11-10T09:45:36.041Z,95.62
2018-11-10T09:46:36.738Z,101.25
2018-11-10T09:47:36.177Z,112.50
2018-11-10T09:48:36.367Z,123.75
2018-11-10T09:49:37.755Z,123.75
2018-11-10T09:51:57.089Z,123.75
2018-11-10T09:52:56.044Z,118.12
2018-11-10T09:53:59.047Z,112.50
2018-11-10T09:54:55.993Z,112.50
2018-11-10T09:55:56.135Z,106.88
2018-11-10T09:56:56.934Z,106.88
2018-11-10T09:57:56.719Z,101.25
2018-11-10T09:58:56.107Z,95.62
2018-11-10T09:59:55.970Z,90.00
2018-11-10T10:00:56.125Z,90.00
2018-11-10T10:01:57.304Z,90.00
2018-11-10T10:02:55.913Z,90.00
2018-11-10T10:03:56.139Z,90.00
2018-11-10T10:05:12.670Z,95.62
2018-11-10T10:05:56.425Z,95.62
2018-11-10T10:06:55.833Z,95.62
2018-11-10T10:07:55.822Z,101.25
2018-11-10T10:08:55.912Z,101.25
2018-11-10T10:09:55.851Z,106.88
2018-11-10T10:11:00.470Z,112.50
2018-11-10T10:11:56.104Z,106.88
2018-11-10T10:12:55.778Z,101.25
2018-11-10T10:13:55.770Z,101.25
2018-11-10T10:14:55.775Z,95.62
2018-11-10T10:15:56.038Z,95.62
2018-11-10T10:16:55.727Z,90.00
2018-11-10T10:17:55.716Z,95.62
2018-11-10T10:18:55.708Z,101.25
2018-11-10T10:19:55.712Z,112.50
2018-11-10T10:20:55.901Z,123.75
2018-11-10T10:21:57.094Z,135.00
2018-11-10T10:22:55.732Z,140.62
2018-11-10T10:23:56.082Z,146.25
2018-11-10T10:24:55.746Z,140.62
2018-11-10T10:25:55.774Z,140.62
2018-11-10T10:26:55.827Z,140.62
2018-11-10T10:27:56.034Z,135.00
2018-11-10T10:28:55.833Z,135.00
2018-11-10T10:29:55.738Z,135.00
2018-11-10T10:30:56.083Z,135.00
2018-11-10T10:31:55.832Z,135.00
2018-11-10T10:32:55.553Z,135.00
2018-11-10T10:33:55.612Z,135.00
2018-11-10T10:34:55.630Z,129.38
2018-11-10T10:35:55.538Z,118.12
2018-11-10T10:36:55.686Z,118.12
2018-11-10T10:37:57.013Z,112.50
2018-11-10T10:38:55.683Z,112.50
2018-11-10T10:39:55.934Z,112.50
2018-11-10T10:40:55.564Z,112.50
2018-11-10T10:41:55.466Z,112.50
2018-11-10T10:42:55.517Z,112.50
2018-11-10T10:43:55.437Z,112.50
2018-11-10T10:44:55.916Z,112.50
2018-11-10T10:45:55.510Z,112.50
2018-11-10T10:46:56.441Z,112.50
2018-11-10T10:47:55.414Z,112.50
2018-11-10T10:48:55.894Z,118.12
2018-11-10T10:49:56.112Z,118.12
2018-11-10T10:50:56.060Z,118.12
2018-11-10T10:51:55.840Z,112.50
2018-11-10T10:52:55.554Z,112.50
2018-11-10T10:53:55.384Z,106.88
2018-11-10T10:54:55.321Z,101.25
2018-11-10T10:55:55.333Z,101.25
2018-11-10T10:56:55.339Z,101.25
2018-11-10T10:57:55.332Z,95.62
2018-11-10T10:58:55.795Z,95.62
2018-11-10T10:59:55.402Z,95.62
2018-11-10T11:00:55.287Z,90.00
2018-11-10T11:01:55.269Z,95.62
2018-11-10T11:02:55.288Z,95.62
2018-11-10T11:03:55.281Z,95.62
2018-11-10T11:04:55.269Z,101.25
2018-11-10T11:05:55.571Z,101.25
2018-11-10T11:06:55.195Z,95.62
2018-11-10T11:07:55.175Z,95.62
2018-11-10T11:08:55.215Z,95.62
2018-11-10T11:09:55.207Z,95.62
2018-11-10T11:10:55.150Z,95.62
2018-11-10T11:11:55.227Z,95.62
2018-11-10T11:12:55.665Z,90.00
2018-11-10T11:13:55.117Z,90.00
2018-11-10T11:14:55.154Z,84.38
2018-11-10T11:15:56.013Z,84.38
2018-11-10T11:16:55.094Z,78.75
2018-11-10T11:17:55.077Z,73.12
2018-11-10T11:18:55.161Z,73.12
2018-11-10T11:19:55.495Z,67.50
2018-11-10T11:21:01.982Z,67.50
2018-11-10T11:21:55.148Z,61.88
2018-11-10T11:22:55.053Z,61.88
2018-11-10T11:23:55.042Z,56.25
2018-11-10T11:24:55.988Z,56.25
2018-11-10T11:25:54.982Z,50.62
2018-11-10T11:26:59.377Z,50.62
2018-11-10T11:27:55.014Z,50.62
2018-11-10T11:28:55.077Z,50.62
2018-11-10T11:29:54.940Z,45.00
2018-11-10T11:30:54.952Z,45.00
2018-11-10T11:31:54.942Z,50.62
2018-11-10T11:32:55.471Z,50.62
2018-11-10T11:33:54.936Z,50.62
2018-11-10T11:34:55.160Z,50.62
2018-11-10T11:35:55.434Z,50.62
2018-11-10T11:36:55.450Z,50.62
2018-11-10T11:37:54.963Z,50.62
2018-11-10T11:38:54.861Z,50.62
2018-11-10T11:39:55.320Z,56.25
2018-11-10T11:40:54.865Z,56.25
2018-11-10T11:41:54.911Z,50.62
2018-11-10T11:42:54.803Z,50.62
2018-11-10T11:43:55.460Z,50.62
2018-11-10T11:44:54.787Z,56.25
2018-11-10T11:45:54.808Z,56.25
2018-11-10T11:46:55.309Z,61.88
2018-11-10T11:47:54.903Z,61.88
2018-11-10T11:48:54.875Z,67.50
2018-11-10T11:49:54.836Z,67.50
2018-11-10T11:50:54.870Z,67.50
2018-11-10T11:51:55.035Z,67.50
2018-11-10T11:52:54.722Z,67.50
2018-11-10T11:53:55.130Z,73.12
2018-11-10T11:54:54.714Z,73.12
2018-11-10T11:55:54.663Z,78.75
2018-11-10T11:56:54.744Z,84.38
2018-11-10T11:57:54.781Z,95.62
2018-11-10T11:58:54.643Z,95.62
2018-11-10T11:59:54.619Z,101.25
2018-11-10T12:00:54.944Z,106.88
2018-11-10T12:01:54.609Z,106.88
2018-11-10T12:02:54.594Z,101.25
2018-11-10T12:03:54.656Z,101.25
2018-11-10T12:04:56.485Z,101.25
2018-11-10T12:05:54.553Z,112.50
2018-11-10T12:06:54.542Z,157.50
2018-11-10T12:07:55.168Z,106.88
2018-11-10T12:08:54.643Z,101.25
2018-11-10T12:09:54.580Z,101.25
2018-11-10T12:10:54.565Z,95.62
2018-11-10T12:11:54.487Z,95.62
2018-11-10T12:12:54.486Z,95.62
2018-11-10T12:13:54.466Z,95.62
2018-11-10T12:14:56.840Z,95.62
2018-11-10T12:15:54.497Z,90.00
2018-11-10T12:16:54.489Z,84.38
2018-11-10T12:17:54.424Z,78.75
2018-11-10T12:18:54.425Z,73.12
2018-11-10T12:19:54.403Z,73.12
2018-11-10T12:20:54.434Z,73.12
2018-11-10T12:21:54.860Z,73.12
2018-11-10T12:22:54.582Z,78.75
2018-11-10T12:23:54.387Z,84.38
2018-11-10T12:24:55.347Z,90.00
2018-11-10T12:25:54.957Z,95.62
2018-11-10T12:26:54.416Z,101.25
2018-11-10T12:27:54.581Z,106.88
2018-11-10T12:28:55.653Z,112.50
2018-11-10T12:29:54.297Z,112.50
2018-11-10T12:30:54.283Z,112.50
2018-11-10T12:31:54.683Z,106.88
2018-11-10T12:32:54.965Z,106.88
2018-11-10T12:33:55.223Z,106.88
2018-11-10T12:34:54.259Z,106.88
2018-11-10T12:35:54.655Z,112.50
2018-11-10T12:36:54.219Z,118.12
2018-11-10T12:37:54.212Z,123.75
2018-11-10T12:38:54.361Z,123.75
2018-11-10T12:39:54.441Z,129.38
2018-11-10T12:40:54.317Z,129.38
2018-11-10T12:41:54.206Z,123.75
2018-11-10T12:43:01.630Z,123.75
2018-11-10T12:43:54.153Z,118.12
2018-11-10T12:44:54.969Z,112.50
2018-11-10T12:45:56.566Z,112.50
2018-11-10T12:46:54.179Z,106.88
2018-11-10T12:47:54.112Z,106.88
2018-11-10T12:48:54.191Z,106.88
2018-11-10T12:49:55.597Z,101.25
2018-11-10T12:50:55.131Z,101.25
2018-11-10T12:51:55.176Z,95.62
2018-11-10T12:52:54.950Z,90.00
2018-11-10T12:53:54.065Z,90.00
2018-11-10T12:54:55.033Z,84.38
2018-11-10T12:55:56.975Z,84.38
2018-11-10T12:56:56.528Z,84.38
2018-11-10T12:57:54.729Z,90.00
2018-11-10T12:58:54.042Z,90.00
2018-11-10T12:59:53.990Z,90.00
2018-11-10T13:00:54.987Z,90.00
2018-11-10T13:01:54.949Z,84.38
2018-11-10T13:02:54.127Z,78.75
2018-11-10T13:03:55.537Z,78.75
2018-11-10T13:04:54.446Z,78.75
2018-11-10T13:05:53.942Z,73.12
2018-11-10T13:06:53.939Z,78.75